createdAt,value
2024-02-05T00:00:03.189Z,21.20
2024-02-05T00:01:05.281Z,22.37
2024-02-05T00:02:07.365Z,22.10
2024-02-05T00:03:10.447Z,20.77
2024-02-05T00:04:16.763Z,19.75
2024-02-05T00:05:18.930Z,19.92
2024-02-05T00:06:20.904Z,22.07
2024-02-05T00:07:23.236Z,22.73
2024-02-05T00:08:25.302Z,22.08
2024-02-05T00:09:27.257Z,22.27
2024-02-05T00:10:29.245Z,21.62
2024-02-05T00:11:31.192Z,22.32
2024-02-05T00:12:33.389Z,22.15
2024-02-05T00:13:35.390Z,22.13
2024-02-05T00:14:37.385Z,21.82
2024-02-05T00:15:39.403Z,21.95
2024-02-05T00:16:41.551Z,21.95
2024-02-05T00:17:46.157Z,20.88
2024-02-05T00:18:48.189Z,22.73
2024-02-05T00:19:50.247Z,23.32
2024-02-05T00:20:53.132Z,23.90
2024-02-05T00:21:55.170Z,22.68
2024-02-05T00:22:57.281Z,22.53
2024-02-05T00:23:59.275Z,22.92
2024-02-05T00:25:02.407Z,23.17
2024-02-05T00:26:04.504Z,22.55
2024-02-05T00:27:06.549Z,23.05
2024-02-05T00:28:09.108Z,23.42
2024-02-05T00:29:11.217Z,22.47
2024-02-05T00:30:14.355Z,22.55
2024-02-05T00:31:17.309Z,23.53
2024-02-05T00:32:19.281Z,22.32
2024-02-05T00:33:21.445Z,24.12
2024-02-05T00:34:23.622Z,24.07
2024-02-05T00:35:25.811Z,23.90
2024-02-05T00:36:28.779Z,22.22
2024-02-05T00:37:30.784Z,23.87
2024-02-05T00:38:32.843Z,24.08
2024-02-05T00:39:34.945Z,24.48
2024-02-05T00:40:36.954Z,23.82
2024-02-05T00:41:38.916Z,24.32
2024-02-05T00:42:40.976Z,23.63
2024-02-05T00:43:42.963Z,22.63
2024-02-05T00:44:44.971Z,21.72
2024-02-05T00:45:47.063Z,24.83
2024-02-05T00:46:50.164Z,25.98
2024-02-05T00:47:52.266Z,26.77
2024-02-05T00:48:55.313Z,26.78
2024-02-05T00:49:57.980Z,26.13
2024-02-05T00:51:00.095Z,28.48
2024-02-05T00:52:02.138Z,28.40
2024-02-05T00:53:04.201Z,29.67
2024-02-05T00:54:06.179Z,31.17
2024-02-05T00:55:08.356Z,30.42
2024-02-05T00:56:10.340Z,29.73
2024-02-05T00:57:12.323Z,30.08
2024-02-05T00:58:14.727Z,30.00
2024-02-05T00:59:16.725Z,29.38
2024-02-05T01:00:19.203Z,30.13
2024-02-05T01:01:21.318Z,29.30
2024-02-05T01:02:24.435Z,30.52
2024-02-05T01:03:26.412Z,29.17
2024-02-05T01:04:31.980Z,29.05
2024-02-05T01:05:34.429Z,29.70
2024-02-05T01:06:36.766Z,28.82
2024-02-05T01:07:39.105Z,29.57
2024-02-05T01:08:41.167Z,28.33
2024-02-05T01:09:43.189Z,28.77
2024-02-05T01:10:45.153Z,28.20
2024-02-05T01:11:47.153Z,27.22
2024-02-05T01:12:52.157Z,27.15
2024-02-05T01:13:54.192Z,29.57
2024-02-05T01:14:56.139Z,28.22
2024-02-05T01:15:58.262Z,27.53
2024-02-05T01:17:00.648Z,27.95
2024-02-05T01:18:04.323Z,29.20
2024-02-05T01:19:06.498Z,30.53
2024-02-05T01:20:12.268Z,28.52
2024-02-05T01:21:14.784Z,29.12
2024-02-05T01:22:16.859Z,29.72
2024-02-05T01:23:19.443Z,29.03
2024-02-05T01:24:21.457Z,29.37
2024-02-05T01:25:23.578Z,29.60
2024-02-05T01:26:25.711Z,29.52
2024-02-05T01:27:27.675Z,30.73
2024-02-05T01:28:29.677Z,29.20
2024-02-05T01:29:31.652Z,30.58
2024-02-05T01:30:33.758Z,30.40
2024-02-05T01:31:36.091Z,29.97
2024-02-05T01:32:38.914Z,30.83
2024-02-05T01:33:42.513Z,29.87
2024-02-05T01:34:44.734Z,30.02
2024-02-05T01:35:46.783Z,28.87
2024-02-05T01:36:48.822Z,29.33
2024-02-05T01:37:50.874Z,31.82
2024-02-05T01:38:52.855Z,30.47
2024-02-05T01:39:54.870Z,30.00
2024-02-05T01:40:56.933Z,29.83
2024-02-05T01:41:59.736Z,29.93
2024-02-05T01:43:02.268Z,30.52
2024-02-05T01:44:04.307Z,28.93
2024-02-05T01:45:06.904Z,29.78
2024-02-05T01:46:09.007Z,28.78
2024-02-05T01:47:11.382Z,29.58
2024-02-05T01:48:13.513Z,28.98
2024-02-05T01:49:15.857Z,29.68
2024-02-05T01:50:18.008Z,29.43
2024-02-05T01:51:19.997Z,29.35
2024-02-05T01:52:22.672Z,30.03
2024-02-05T01:53:24.851Z,28.12
2024-02-05T01:54:26.808Z,28.75
2024-02-05T01:55:28.819Z,29.68
2024-02-05T01:56:32.063Z,29.33
2024-02-05T01:57:34.257Z,28.35
2024-02-05T01:58:36.213Z,28.92
2024-02-05T01:59:38.816Z,29.17
2024-02-05T02:00:40.966Z,28.62
2024-02-05T02:01:43.196Z,28.93
2024-02-05T02:02:45.248Z,28.45
2024-02-05T02:03:47.259Z,26.95
2024-02-05T02:04:49.421Z,28.00
2024-02-05T02:05:51.465Z,28.23
2024-02-05T02:06:53.477Z,28.25
2024-02-05T02:07:58.280Z,28.18
2024-02-05T02:09:03.412Z,27.52
2024-02-05T02:10:05.907Z,27.75
2024-02-05T02:11:08.338Z,28.85
2024-02-05T02:12:10.280Z,28.93
2024-02-05T02:13:14.411Z,28.32
2024-02-05T02:14:17.440Z,28.15
2024-02-05T02:15:19.687Z,28.75
2024-02-05T02:16:26.312Z,28.93
2024-02-05T02:17:29.812Z,29.15
2024-02-05T02:18:31.911Z,29.78
2024-02-05T02:19:38.279Z,29.53
2024-02-05T02:20:47.277Z,28.57
2024-02-05T02:21:52.729Z,29.52
2024-02-05T02:23:03.444Z,30.20
2024-02-05T02:24:08.287Z,30.12
2024-02-05T02:25:11.256Z,31.38
2024-02-05T02:26:13.294Z,31.00
2024-02-05T02:27:15.284Z,31.60
2024-02-05T02:28:17.306Z,31.98
2024-02-05T02:29:19.288Z,30.03
2024-02-05T02:30:21.228Z,30.03
2024-02-05T02:31:24.009Z,29.95
2024-02-05T02:32:31.698Z,28.77
2024-02-05T02:33:36.465Z,28.87
2024-02-05T02:34:38.618Z,29.70
2024-02-05T02:35:46.015Z,28.88
2024-02-05T02:36:56.607Z,28.40
2024-02-05T02:38:09.868Z,27.83
2024-02-05T02:39:17.677Z,28.43
2024-02-05T02:40:19.747Z,27.30
2024-02-05T02:41:25.629Z,27.28
2024-02-05T02:42:27.674Z,28.25
2024-02-05T02:43:29.660Z,27.15
2024-02-05T02:44:31.616Z,27.40
2024-02-05T02:45:33.628Z,27.68
2024-02-05T02:46:35.599Z,27.55
2024-02-05T02:47:37.640Z,27.18
2024-02-05T02:48:39.738Z,27.58
2024-02-05T02:49:41.941Z,26.30
2024-02-05T02:50:46.767Z,27.50
2024-02-05T02:51:48.795Z,27.25
2024-02-05T02:52:50.764Z,27.63
2024-02-05T02:53:52.845Z,27.05
2024-02-05T02:54:54.827Z,28.75
2024-02-05T02:55:56.945Z,28.15
2024-02-05T02:56:58.900Z,27.77
2024-02-05T02:58:00.922Z,28.67
2024-02-05T02:59:03.028Z,28.30
2024-02-05T03:00:06.812Z,28.52
2024-02-05T03:01:09.943Z,26.83
2024-02-05T03:02:12.138Z,27.88
2024-02-05T03:03:14.238Z,26.48
2024-02-05T03:04:16.615Z,27.07
2024-02-05T03:05:18.712Z,28.82
2024-02-05T03:06:20.720Z,28.98
2024-02-05T03:07:22.740Z,27.75
2024-02-05T03:08:25.130Z,26.62
2024-02-05T03:09:27.953Z,26.72
2024-02-05T03:10:29.972Z,26.25
2024-02-05T03:11:31.951Z,27.33
2024-02-05T03:12:34.288Z,27.17
2024-02-05T03:13:36.347Z,28.07
2024-02-05T03:14:38.642Z,28.02
2024-02-05T03:15:40.643Z,27.93
2024-02-05T03:16:42.652Z,27.72
2024-02-05T03:17:44.856Z,26.22
2024-02-05T03:18:46.998Z,28.15
2024-02-05T03:19:49.115Z,26.00
2024-02-05T03:20:51.170Z,28.00
2024-02-05T03:21:53.231Z,27.58
2024-02-05T03:23:02.563Z,27.00
2024-02-05T03:24:10.452Z,27.90
2024-02-05T03:25:13.974Z,27.73
2024-02-05T03:26:16.092Z,26.08
2024-02-05T03:27:18.100Z,25.48
2024-02-05T03:28:20.139Z,26.07
2024-02-05T03:29:22.161Z,27.07
2024-02-05T03:30:24.741Z,25.92
2024-02-05T03:31:26.876Z,25.83
2024-02-05T03:32:28.861Z,24.65
2024-02-05T03:33:30.831Z,26.63
2024-02-05T03:34:32.949Z,26.72
2024-02-05T03:35:34.957Z,26.57
2024-02-05T03:36:36.904Z,25.32
2024-02-05T03:37:39.003Z,25.82
2024-02-05T03:38:41.009Z,26.48
2024-02-05T03:39:43.033Z,26.12
2024-02-05T03:40:45.036Z,26.27
2024-02-05T03:41:47.028Z,26.02
2024-02-05T03:42:49.640Z,27.47
2024-02-05T03:43:51.637Z,26.57
2024-02-05T03:44:53.618Z,26.17
2024-02-05T03:45:55.674Z,25.03
2024-02-05T03:46:57.678Z,26.75
2024-02-05T03:47:59.792Z,26.07
2024-02-05T03:49:02.004Z,26.15
2024-02-05T03:50:05.094Z,25.53
2024-02-05T03:51:07.275Z,26.72
2024-02-05T03:52:09.303Z,25.97
2024-02-05T03:53:11.296Z,25.42
2024-02-05T03:54:13.291Z,24.82
2024-02-05T03:55:15.820Z,24.68
2024-02-05T03:56:19.430Z,25.12
2024-02-05T03:57:21.379Z,23.73
2024-02-05T03:58:23.458Z,25.45
2024-02-05T03:59:25.439Z,25.18
2024-02-05T04:00:27.899Z,24.47
2024-02-05T04:01:31.436Z,25.30
2024-02-05T04:02:33.650Z,25.05
2024-02-05T04:03:35.679Z,25.00
2024-02-05T04:04:38.560Z,24.73
2024-02-05T04:05:40.631Z,25.27
2024-02-05T04:06:42.753Z,25.83
2024-02-05T04:07:44.870Z,25.07
2024-02-05T04:08:46.875Z,24.43
2024-02-05T04:09:50.315Z,25.95
2024-02-05T04:10:57.553Z,27.00
2024-02-05T04:11:59.511Z,27.97
2024-02-05T04:13:01.566Z,27.73
2024-02-05T04:14:03.569Z,25.10
2024-02-05T04:15:05.989Z,25.32
2024-02-05T04:16:14.251Z,24.60
2024-02-05T04:17:17.915Z,25.87
2024-02-05T04:18:19.885Z,25.63
2024-02-05T04:19:21.897Z,25.68
2024-02-05T04:20:23.954Z,25.87
2024-02-05T04:21:25.939Z,25.63
2024-02-05T04:22:27.984Z,24.90
2024-02-05T04:23:29.991Z,25.22
2024-02-05T04:24:32.059Z,24.13
2024-02-05T04:25:34.124Z,25.08
2024-02-05T04:26:38.817Z,25.27
2024-02-05T04:27:40.876Z,25.42
2024-02-05T04:28:42.989Z,24.50
2024-02-05T04:29:45.797Z,25.07
2024-02-05T04:30:51.594Z,25.03
2024-02-05T04:31:53.639Z,26.32
2024-02-05T04:32:56.994Z,24.62
2024-02-05T04:33:59.090Z,25.02
2024-02-05T04:35:01.422Z,25.43
2024-02-05T04:36:03.695Z,24.60
2024-02-05T04:37:05.955Z,24.55
2024-02-05T04:38:08.017Z,24.28
2024-02-05T04:39:12.956Z,24.15
2024-02-05T04:40:15.376Z,24.23
2024-02-05T04:41:17.478Z,24.87
2024-02-05T04:42:19.474Z,25.25
2024-02-05T04:43:21.644Z,23.60
2024-02-05T04:44:23.601Z,23.83
2024-02-05T04:45:25.577Z,23.58
2024-02-05T04:46:27.960Z,24.02
2024-02-05T04:47:29.982Z,23.93
2024-02-05T04:48:32.409Z,24.05
2024-02-05T04:49:34.559Z,24.52
2024-02-05T04:50:36.635Z,23.15
2024-02-05T04:51:38.691Z,23.30
2024-02-05T04:52:40.697Z,24.25
2024-02-05T04:53:42.736Z,23.08
2024-02-05T04:54:47.281Z,22.98
2024-02-05T04:55:49.290Z,22.40
2024-02-05T04:56:51.274Z,22.77
2024-02-05T04:57:53.313Z,21.60
2024-02-05T04:58:55.336Z,21.68
2024-02-05T04:59:57.323Z,22.42
2024-02-05T05:00:59.454Z,22.67
2024-02-05T05:02:01.684Z,21.42
2024-02-05T05:03:04.224Z,21.68
2024-02-05T05:04:06.241Z,21.82
2024-02-05T05:05:11.080Z,22.30
2024-02-05T05:06:13.149Z,21.33
2024-02-05T05:07:15.719Z,22.38
2024-02-05T05:08:17.712Z,22.15
2024-02-05T05:09:19.658Z,22.50
2024-02-05T05:10:24.380Z,22.33
2024-02-05T05:11:26.423Z,21.18
2024-02-05T05:12:28.785Z,22.30
2024-02-05T05:13:30.777Z,22.45
2024-02-05T05:14:32.757Z,22.77
2024-02-05T05:15:37.625Z,21.87
2024-02-05T05:16:40.144Z,20.82
2024-02-05T05:17:46.009Z,21.40
2024-02-05T05:18:48.339Z,21.77
2024-02-05T05:19:50.686Z,22.47
2024-02-05T05:20:52.712Z,21.47
2024-02-05T05:21:56.070Z,22.70
2024-02-05T05:22:58.061Z,22.67
2024-02-05T05:24:00.044Z,22.22
2024-02-05T05:25:02.105Z,23.88
2024-02-05T05:26:04.091Z,23.53
2024-02-05T05:27:06.850Z,23.87
2024-02-05T05:28:09.269Z,23.58
2024-02-05T05:29:13.257Z,22.68
2024-02-05T05:30:16.382Z,22.62
2024-02-05T05:31:18.655Z,23.80
2024-02-05T05:32:20.651Z,23.37
2024-02-05T05:33:22.659Z,22.03
2024-02-05T05:34:25.412Z,24.13
2024-02-05T05:35:27.443Z,22.87
2024-02-05T05:36:29.402Z,21.97
2024-02-05T05:37:31.705Z,23.23
2024-02-05T05:38:33.746Z,25.42
2024-02-05T05:39:36.539Z,22.92
2024-02-05T05:40:38.551Z,25.85
2024-02-05T05:41:40.547Z,24.52
2024-02-05T05:42:42.586Z,26.20
2024-02-05T05:43:44.685Z,25.92
2024-02-05T05:44:46.703Z,26.57
2024-02-05T05:45:49.071Z,24.63
2024-02-05T05:46:51.055Z,21.90
2024-02-05T05:47:53.132Z,24.00
2024-02-05T05:48:58.052Z,23.67
2024-02-05T05:50:00.310Z,23.42
2024-02-05T05:51:02.434Z,23.35
2024-02-05T05:52:04.912Z,23.10
2024-02-05T05:53:06.911Z,22.73
2024-02-05T05:54:11.659Z,23.63
2024-02-05T05:55:13.626Z,23.92
2024-02-05T05:56:16.696Z,25.48
2024-02-05T05:57:18.727Z,26.52
2024-02-05T05:58:20.954Z,27.37
2024-02-05T05:59:23.093Z,26.43
2024-02-05T06:00:25.188Z,27.85
2024-02-05T06:01:30.246Z,27.50
2024-02-05T06:02:32.436Z,26.95
2024-02-05T06:03:34.464Z,25.55
2024-02-05T06:04:37.494Z,26.08
2024-02-05T06:05:39.664Z,26.57
2024-02-05T06:06:41.859Z,26.80
2024-02-05T06:07:46.152Z,27.73
2024-02-05T06:08:48.194Z,28.18
2024-02-05T06:09:50.208Z,28.73
2024-02-05T06:10:52.854Z,28.52
2024-02-05T06:11:54.910Z,29.58
2024-02-05T06:12:56.931Z,28.48
2024-02-05T06:13:59.091Z,28.32
2024-02-05T06:15:01.093Z,28.92
2024-02-05T06:16:03.170Z,28.70
2024-02-05T06:17:05.478Z,29.22
2024-02-05T06:18:08.040Z,27.55
2024-02-05T06:19:10.140Z,28.47
2024-02-05T06:20:15.485Z,28.40
2024-02-05T06:21:19.817Z,27.82
2024-02-05T06:22:21.885Z,29.95
2024-02-05T06:23:24.065Z,30.95
2024-02-05T06:24:26.061Z,29.87
2024-02-05T06:25:28.226Z,29.88
2024-02-05T06:26:30.254Z,29.23
2024-02-05T06:27:32.224Z,30.12
2024-02-05T06:28:34.316Z,29.17
2024-02-05T06:29:37.391Z,28.38
2024-02-05T06:30:44.224Z,27.32
2024-02-05T06:31:46.305Z,28.58
2024-02-05T06:32:48.334Z,29.03
2024-02-05T06:33:50.413Z,28.98
2024-02-05T06:34:52.594Z,29.52
2024-02-05T06:35:54.561Z,29.32
2024-02-05T06:36:56.557Z,28.63
2024-02-05T06:37:58.531Z,29.03
2024-02-05T06:39:01.449Z,28.97
2024-02-05T06:40:03.982Z,30.22
2024-02-05T06:41:09.018Z,28.98
2024-02-05T06:42:11.034Z,30.73
2024-02-05T06:43:13.565Z,31.85
2024-02-05T06:44:18.384Z,32.55
2024-02-05T06:45:22.577Z,33.48
2024-02-05T06:46:24.780Z,33.72
2024-02-05T06:47:27.489Z,32.30
2024-02-05T06:48:29.571Z,31.28
2024-02-05T06:49:31.679Z,32.62
2024-02-05T06:50:33.726Z,31.40
2024-02-05T06:51:35.961Z,31.45
2024-02-05T06:52:38.251Z,30.87
2024-02-05T06:53:40.336Z,32.62
2024-02-05T06:54:42.578Z,32.20
2024-02-05T06:55:44.921Z,30.65
2024-02-05T06:56:50.397Z,31.15
2024-02-05T06:57:55.167Z,30.37
2024-02-05T06:58:59.015Z,31.18
2024-02-05T07:00:01.744Z,32.53
2024-02-05T07:01:04.470Z,30.98
2024-02-05T07:02:10.467Z,30.55
2024-02-05T07:03:14.058Z,30.98
2024-02-05T07:04:17.427Z,30.45
2024-02-05T07:05:21.852Z,32.83
2024-02-05T07:06:24.983Z,36.40
2024-02-05T07:07:29.178Z,36.73
2024-02-05T07:08:31.418Z,35.38
2024-02-05T07:09:34.219Z,35.87
2024-02-05T07:10:36.669Z,33.33
2024-02-05T07:11:39.189Z,32.85
2024-02-05T07:12:41.538Z,32.53
2024-02-05T07:13:43.598Z,33.83
2024-02-05T07:14:45.750Z,33.93
2024-02-05T07:15:47.793Z,34.12
2024-02-05T07:16:49.930Z,34.33
2024-02-05T07:17:52.070Z,35.00
2024-02-05T07:18:54.669Z,33.52
2024-02-05T07:19:59.706Z,35.75
2024-02-05T07:21:06.380Z,34.57
2024-02-05T07:22:14.642Z,33.95
2024-02-05T07:23:16.766Z,35.48
2024-02-05T07:24:19.024Z,36.30
2024-02-05T07:25:22.041Z,35.03
2024-02-05T07:26:24.116Z,35.33
2024-02-05T07:27:29.729Z,35.52
2024-02-05T07:28:33.786Z,35.97
2024-02-05T07:29:35.875Z,36.07
2024-02-05T07:30:37.933Z,35.73
2024-02-05T07:31:39.990Z,35.53
2024-02-05T07:32:42.638Z,35.82
2024-02-05T07:33:44.776Z,35.35
2024-02-05T07:34:49.806Z,36.70
2024-02-05T07:35:51.883Z,36.95
2024-02-05T07:36:53.986Z,36.08
2024-02-05T07:37:56.037Z,36.85
2024-02-05T07:38:58.140Z,36.63
2024-02-05T07:40:00.530Z,35.00
2024-02-05T07:41:08.377Z,35.33
2024-02-05T07:42:11.110Z,35.97
2024-02-05T07:43:13.522Z,35.57
2024-02-05T07:44:15.699Z,36.72
2024-02-05T07:45:17.882Z,36.85
2024-02-05T07:46:21.735Z,37.27
2024-02-05T07:47:24.232Z,36.12
2024-02-05T07:48:28.960Z,36.35
2024-02-05T07:49:31.182Z,35.63
2024-02-05T07:50:33.243Z,36.50
2024-02-05T07:51:35.324Z,35.08
2024-02-05T07:52:37.383Z,36.02
2024-02-05T07:53:42.258Z,34.78
2024-02-05T07:54:44.715Z,35.83
2024-02-05T07:55:46.731Z,35.35
2024-02-05T07:56:48.983Z,34.73
2024-02-05T07:57:51.567Z,33.98
2024-02-05T07:58:53.762Z,34.52
2024-02-05T07:59:56.954Z,32.98
2024-02-05T08:00:59.276Z,34.05
2024-02-05T08:02:01.741Z,32.72
2024-02-05T08:03:04.725Z,33.87
2024-02-05T08:04:07.098Z,34.10
2024-02-05T08:05:09.547Z,33.57
2024-02-05T08:06:19.391Z,33.48
2024-02-05T08:07:21.541Z,32.00
2024-02-05T08:08:24.145Z,31.85
2024-02-05T08:09:28.101Z,32.95
2024-02-05T08:10:30.196Z,33.08
2024-02-05T08:11:32.560Z,32.82
2024-02-05T08:12:34.735Z,33.72
2024-02-05T08:13:37.040Z,32.25
2024-02-05T08:14:39.676Z,31.85
2024-02-05T08:15:47.500Z,32.22
2024-02-05T08:16:49.595Z,31.88
2024-02-05T08:17:51.766Z,32.52
2024-02-05T08:18:54.042Z,32.05
2024-02-05T08:19:56.317Z,33.18
2024-02-05T08:20:58.465Z,31.60
2024-02-05T08:22:02.250Z,32.25
2024-02-05T08:23:04.313Z,31.25
2024-02-05T08:24:06.523Z,31.88
2024-02-05T08:25:09.217Z,31.95
2024-02-05T08:26:13.185Z,32.70
2024-02-05T08:27:15.534Z,33.30
2024-02-05T08:28:17.581Z,32.40
2024-02-05T08:29:23.202Z,31.62
2024-02-05T08:30:25.230Z,32.02
2024-02-05T08:31:27.579Z,31.42
2024-02-05T08:32:29.985Z,31.87
2024-02-05T08:33:33.188Z,31.47
2024-02-05T08:34:35.634Z,32.33
2024-02-05T08:35:37.916Z,32.20
2024-02-05T08:36:40.149Z,31.13
2024-02-05T08:37:42.231Z,31.68
2024-02-05T08:38:44.544Z,31.47
2024-02-05T08:39:46.739Z,31.67
2024-02-05T08:40:48.876Z,32.13
2024-02-05T08:41:50.943Z,31.37
2024-02-05T08:42:52.984Z,32.38
2024-02-05T08:43:55.137Z,32.12
2024-02-05T08:44:59.043Z,32.23
2024-02-05T08:46:05.456Z,31.10
2024-02-05T08:47:10.185Z,30.88
2024-02-05T08:48:12.582Z,31.28
2024-02-05T08:49:14.870Z,32.12
2024-02-05T08:50:17.098Z,31.80
2024-02-05T08:51:19.836Z,31.45
2024-02-05T08:52:24.290Z,31.22
2024-02-05T08:53:26.471Z,32.20
2024-02-05T08:54:28.844Z,32.45
2024-02-05T08:55:30.935Z,32.02
2024-02-05T08:56:34.154Z,30.82
2024-02-05T08:57:36.225Z,30.35
2024-02-05T08:58:47.044Z,31.70
2024-02-05T08:59:52.182Z,31.08
2024-02-05T09:00:57.067Z,31.48
2024-02-05T09:01:59.260Z,30.62
2024-02-05T09:03:06.205Z,30.07
2024-02-05T09:04:10.096Z,30.75
2024-02-05T09:05:12.171Z,31.22
2024-02-05T09:06:14.314Z,29.68
2024-02-05T09:07:16.605Z,29.23
2024-02-05T09:08:19.434Z,30.57
2024-02-05T09:09:21.476Z,29.42
2024-02-05T09:10:24.413Z,29.32
2024-02-05T09:11:34.808Z,29.15
2024-02-05T09:12:38.582Z,28.55
2024-02-05T09:13:40.711Z,28.33
2024-02-05T09:14:42.735Z,28.05
2024-02-05T09:15:45.164Z,28.32
2024-02-05T09:16:47.399Z,27.82
2024-02-05T09:17:50.227Z,27.32
2024-02-05T09:18:52.437Z,26.55
2024-02-05T09:19:54.589Z,27.97
2024-02-05T09:20:56.730Z,27.98
2024-02-05T09:21:59.050Z,29.17
2024-02-05T09:23:01.361Z,28.12
2024-02-05T09:24:03.481Z,26.85
2024-02-05T09:25:07.249Z,26.87
2024-02-05T09:26:09.433Z,27.12
2024-02-05T09:27:12.266Z,27.30
2024-02-05T09:28:14.944Z,25.93
2024-02-05T09:29:17.173Z,26.28
2024-02-05T09:30:21.845Z,26.67
2024-02-05T09:31:23.881Z,26.43
2024-02-05T09:32:26.000Z,26.50
2024-02-05T09:33:28.001Z,26.40
2024-02-05T09:34:30.108Z,25.87
2024-02-05T09:35:32.319Z,24.83
2024-02-05T09:36:37.030Z,25.10
2024-02-05T09:37:39.083Z,26.37
2024-02-05T09:38:41.117Z,28.38
2024-02-05T09:39:43.191Z,28.53
2024-02-05T09:40:45.367Z,28.22
2024-02-05T09:41:47.414Z,29.62
2024-02-05T09:42:51.124Z,27.68
2024-02-05T09:43:53.203Z,28.25
2024-02-05T09:44:55.885Z,28.33
2024-02-05T09:46:03.070Z,28.58
2024-02-05T09:47:05.278Z,27.52
2024-02-05T09:48:08.613Z,26.37
2024-02-05T09:49:12.061Z,25.87
2024-02-05T09:50:16.118Z,24.88
2024-02-05T09:51:18.344Z,24.92
2024-02-05T09:52:20.779Z,25.42
2024-02-05T09:53:22.870Z,25.37
2024-02-05T09:54:24.979Z,25.42
2024-02-05T09:55:29.189Z,24.65
2024-02-05T09:56:34.645Z,24.87
2024-02-05T09:57:41.110Z,25.52
2024-02-05T09:58:43.175Z,26.77
2024-02-05T09:59:48.209Z,27.67
2024-02-05T10:00:50.749Z,26.75
2024-02-05T10:01:52.801Z,26.73
2024-02-05T10:02:55.260Z,25.87
2024-02-05T10:03:57.842Z,25.17
2024-02-05T10:05:00.558Z,25.13
2024-02-05T10:06:05.471Z,25.33
2024-02-05T10:07:17.396Z,24.85
2024-02-05T10:08:19.618Z,24.52
2024-02-05T10:09:22.443Z,24.60
2024-02-05T10:10:24.486Z,24.50
2024-02-05T10:11:26.940Z,24.38
2024-02-05T10:12:28.984Z,25.15
2024-02-05T10:13:31.132Z,24.95
2024-02-05T10:14:33.590Z,25.20
2024-02-05T10:15:35.543Z,25.62
2024-02-05T10:16:38.889Z,25.80
2024-02-05T10:17:40.878Z,25.52
2024-02-05T10:18:42.980Z,26.12
2024-02-05T10:19:47.224Z,25.72
2024-02-05T10:20:49.343Z,24.88
2024-02-05T10:21:51.589Z,25.93
2024-02-05T10:22:53.618Z,25.55
2024-02-05T10:23:55.923Z,26.22
2024-02-05T10:25:01.090Z,24.97
2024-02-05T10:26:03.438Z,26.70
2024-02-05T10:27:05.497Z,25.78
2024-02-05T10:28:08.338Z,26.50
2024-02-05T10:29:14.188Z,25.50
2024-02-05T10:30:19.297Z,26.15
2024-02-05T10:31:24.574Z,26.43
2024-02-05T10:32:26.705Z,26.63
2024-02-05T10:33:28.781Z,25.85
2024-02-05T10:34:31.077Z,26.10
2024-02-05T10:35:33.083Z,24.78
2024-02-05T10:36:35.033Z,24.28
2024-02-05T10:37:37.285Z,24.08
2024-02-05T10:38:39.426Z,25.57
2024-02-05T10:39:41.577Z,25.30
2024-02-05T10:40:43.812Z,25.42
2024-02-05T10:41:45.785Z,24.50
2024-02-05T10:42:47.805Z,24.30
2024-02-05T10:43:52.671Z,24.22
2024-02-05T10:44:54.713Z,23.78
2024-02-05T10:45:59.649Z,23.82
2024-02-05T10:47:02.586Z,23.40
2024-02-05T10:48:05.617Z,24.07
2024-02-05T10:49:09.295Z,23.12
2024-02-05T10:50:15.515Z,23.82
2024-02-05T10:51:17.814Z,22.97
2024-02-05T10:52:20.009Z,22.25
2024-02-05T10:53:24.232Z,22.88
2024-02-05T10:54:26.754Z,22.78
2024-02-05T10:55:28.877Z,23.08
2024-02-05T10:56:31.961Z,23.30
2024-02-05T10:57:39.047Z,23.30
2024-02-05T10:58:43.227Z,21.45
2024-02-05T10:59:45.204Z,21.35
2024-02-05T11:00:47.365Z,20.77
2024-02-05T11:01:50.045Z,19.28
2024-02-05T11:02:55.780Z,19.32
2024-02-05T11:03:59.193Z,18.68
2024-02-05T11:05:04.091Z,18.42
2024-02-05T11:06:07.071Z,21.23
2024-02-05T11:07:09.786Z,22.00
2024-02-05T11:08:27.471Z,22.80
2024-02-05T11:09:30.017Z,22.98
2024-02-05T11:10:33.625Z,23.48
2024-02-05T11:11:37.548Z,22.33
2024-02-05T11:12:39.892Z,22.93
2024-02-05T11:13:53.390Z,22.65
2024-02-05T11:14:56.580Z,22.42
2024-02-05T11:16:02.853Z,21.28
2024-02-05T11:17:05.788Z,19.88
2024-02-05T11:18:15.391Z,20.27
2024-02-05T11:19:18.653Z,20.85
2024-02-05T11:20:20.737Z,20.35
2024-02-05T11:21:27.142Z,20.12
2024-02-05T11:22:29.197Z,20.02
2024-02-05T11:23:32.182Z,20.12
2024-02-05T11:24:34.906Z,20.35
2024-02-05T11:25:37.075Z,20.58
2024-02-05T11:26:39.801Z,20.58
2024-02-05T11:27:43.547Z,20.65
2024-02-05T11:28:50.600Z,19.40
2024-02-05T11:29:52.923Z,20.20
2024-02-05T11:31:03.111Z,20.10
2024-02-05T11:32:06.046Z,19.08
2024-02-05T11:33:08.104Z,21.10
2024-02-05T11:34:10.204Z,19.63
2024-02-05T11:35:14.200Z,19.40
2024-02-05T11:36:16.326Z,18.95
2024-02-05T11:37:18.838Z,18.98
2024-02-05T11:38:21.874Z,18.87
2024-02-05T11:39:24.910Z,18.67
2024-02-05T11:40:28.095Z,18.13
2024-02-05T11:41:31.489Z,18.90
2024-02-05T11:42:34.544Z,18.70
2024-02-05T11:43:36.642Z,17.93
2024-02-05T11:44:38.645Z,18.23
2024-02-05T11:45:40.638Z,19.17
2024-02-05T11:46:43.788Z,18.42
2024-02-05T11:47:45.878Z,17.70
2024-02-05T11:48:48.426Z,18.75
2024-02-05T11:49:50.824Z,18.58
2024-02-05T11:50:52.934Z,18.22
2024-02-05T11:51:54.928Z,18.27
2024-02-05T11:52:57.014Z,17.75
2024-02-05T11:54:02.025Z,17.75
2024-02-05T11:55:04.259Z,17.50
2024-02-05T11:56:09.532Z,18.28
2024-02-05T11:57:11.509Z,18.10
2024-02-05T11:58:13.852Z,18.00
2024-02-05T11:59:15.866Z,17.28
2024-02-05T12:00:17.920Z,17.53
2024-02-05T12:01:20.031Z,17.30
2024-02-05T12:02:22.341Z,17.48
2024-02-05T12:03:24.732Z,17.50
2024-02-05T12:04:26.902Z,17.12
2024-02-05T12:05:30.811Z,17.50
2024-02-05T12:06:33.285Z,16.42
2024-02-05T12:07:35.725Z,17.00
2024-02-05T12:08:38.089Z,16.53
2024-02-05T12:09:40.130Z,16.85
2024-02-05T12:10:42.137Z,17.60
2024-02-05T12:11:44.246Z,17.53
2024-02-05T12:12:47.342Z,17.27
2024-02-05T12:14:12.135Z,16.35
2024-02-05T12:15:20.789Z,17.08
2024-02-05T12:16:26.322Z,17.07
2024-02-05T12:17:29.790Z,16.33
2024-02-05T12:18:31.813Z,17.08
2024-02-05T12:19:34.029Z,16.62
2024-02-05T12:20:36.328Z,15.97
2024-02-05T12:21:38.457Z,16.68
2024-02-05T12:22:40.526Z,15.97
2024-02-05T12:23:46.492Z,15.52
2024-02-05T12:24:48.490Z,14.70
2024-02-05T12:25:51.093Z,15.63
2024-02-05T12:26:53.151Z,15.90
2024-02-05T12:27:55.201Z,16.12
2024-02-05T12:28:57.978Z,15.90
2024-02-05T12:30:07.201Z,14.22
2024-02-05T12:31:09.369Z,14.90
2024-02-05T12:32:11.451Z,14.50
2024-02-05T12:33:17.317Z,13.60
2024-02-05T12:34:19.847Z,13.52
2024-02-05T12:35:22.346Z,13.95
2024-02-05T12:36:24.672Z,13.98
2024-02-05T12:37:27.488Z,13.25
2024-02-05T12:38:31.520Z,13.90
2024-02-05T12:39:33.932Z,13.45
2024-02-05T12:40:36.024Z,13.63
2024-02-05T12:41:38.010Z,14.28
2024-02-05T12:42:40.306Z,13.92
2024-02-05T12:43:42.593Z,14.78
2024-02-05T12:44:53.160Z,13.97
2024-02-05T12:46:03.038Z,14.72
2024-02-05T12:47:07.584Z,14.45
2024-02-05T12:48:09.621Z,14.28
2024-02-05T12:49:11.736Z,15.02
2024-02-05T12:50:13.869Z,14.65
2024-02-05T12:51:15.991Z,13.78
2024-02-05T12:52:19.172Z,14.28
2024-02-05T12:53:21.704Z,14.52
2024-02-05T12:54:23.720Z,14.85
2024-02-05T12:55:26.193Z,14.27
2024-02-05T12:56:28.442Z,14.47
2024-02-05T12:57:30.432Z,14.82
2024-02-05T12:58:32.465Z,13.97
2024-02-05T12:59:34.865Z,13.55
2024-02-05T13:00:37.158Z,14.10
2024-02-05T13:01:39.266Z,13.63
2024-02-05T13:02:41.312Z,14.48
2024-02-05T13:03:43.425Z,13.48
2024-02-05T13:04:48.082Z,13.22
2024-02-05T13:05:50.470Z,13.52
2024-02-05T13:07:03.455Z,12.83
2024-02-05T13:08:08.827Z,13.35
2024-02-05T13:09:10.824Z,14.42
2024-02-05T13:10:14.784Z,13.95
2024-02-05T13:11:16.928Z,14.68
2024-02-05T13:12:19.299Z,14.73
2024-02-05T13:13:24.876Z,13.75
2024-02-05T13:14:29.561Z,13.83
2024-02-05T13:15:31.556Z,13.27
2024-02-05T13:16:33.684Z,13.10
2024-02-05T13:17:35.733Z,13.70
2024-02-05T13:18:37.850Z,12.72
2024-02-05T13:19:40.340Z,12.53
2024-02-05T13:20:42.958Z,12.37
2024-02-05T13:21:44.976Z,11.20
2024-02-05T13:22:49.466Z,10.82
2024-02-05T13:23:51.463Z,11.05
2024-02-05T13:24:53.445Z,11.63
2024-02-05T13:25:55.470Z,11.80
2024-02-05T13:26:57.510Z,11.42
2024-02-05T13:27:59.543Z,10.68
2024-02-05T13:29:01.546Z,10.45
2024-02-05T13:30:06.955Z,10.58